createdAt,value
2023-05-10T00:02:34.301Z,33.81
2023-05-10T00:07:35.952Z,34.02
2023-05-10T00:12:37.593Z,34.20
2023-05-10T00:17:39.197Z,34.35
2023-05-10T00:22:40.800Z,34.41
2023-05-10T00:27:42.373Z,34.59
2023-05-10T00:32:44.621Z,34.77
2023-05-10T00:37:46.221Z,34.69
2023-05-10T00:42:47.783Z,34.93
2023-05-10T00:47:50.143Z,34.97
2023-05-10T00:52:53.228Z,35.05
2023-05-10T00:57:55.275Z,35.40
2023-05-10T01:02:57.130Z,35.40
2023-05-10T01:07:58.715Z,36.02
2023-05-10T01:13:00.451Z,36.62
2023-05-10T01:18:03.319Z,37.08
2023-05-10T01:23:17.030Z,37.54
2023-05-10T01:28:49.552Z,37.37
2023-05-10T01:33:59.952Z,37.35
2023-05-10T01:39:22.880Z,37.58
2023-05-10T01:44:38.457Z,37.78
2023-05-10T01:49:47.292Z,38.05
2023-05-10T01:54:55.046Z,38.12
2023-05-10T01:59:58.052Z,38.54
2023-05-10T02:05:00.400Z,38.38
2023-05-10T02:10:05.263Z,38.72
2023-05-10T02:15:08.693Z,38.64
2023-05-10T02:20:12.394Z,38.64
2023-05-10T02:25:14.930Z,38.74
2023-05-10T02:30:18.958Z,38.90
2023-05-10T02:35:21.775Z,39.30
2023-05-10T02:40:26.167Z,39.97
2023-05-10T02:45:32.306Z,39.82
2023-05-10T02:50:34.978Z,40.21
2023-05-10T02:55:39.885Z,40.41
2023-05-10T03:00:41.538Z,40.65
2023-05-10T03:05:43.057Z,40.98
2023-05-10T03:11:05.474Z,41.15
2023-05-10T03:16:16.566Z,41.66
2023-05-10T03:21:21.855Z,41.63
2023-05-10T03:26:27.737Z,41.74
2023-05-10T03:31:37.151Z,41.98
2023-05-10T03:36:38.812Z,42.33
2023-05-10T03:41:40.469Z,42.38
2023-05-10T03:46:42.204Z,42.80
2023-05-10T03:51:44.106Z,43.82
2023-05-10T03:56:46.015Z,43.83
2023-05-10T04:01:47.779Z,44.13
2023-05-10T04:06:49.735Z,44.44
2023-05-10T04:11:51.252Z,44.93
2023-05-10T04:16:52.815Z,45.02
2023-05-10T04:21:54.714Z,44.91
2023-05-10T04:26:57.774Z,45.28
2023-05-10T04:31:59.670Z,45.30
2023-05-10T04:37:01.149Z,45.73
2023-05-10T04:42:04.266Z,46.07
2023-05-10T04:47:05.811Z,46.36
2023-05-10T04:52:07.335Z,46.31
2023-05-10T04:57:09.162Z,46.47
2023-05-10T05:02:10.855Z,46.88
2023-05-10T05:07:12.499Z,46.98
2023-05-10T05:12:15.312Z,47.13
2023-05-10T05:17:17.112Z,47.34
2023-05-10T05:22:20.370Z,47.67
2023-05-10T05:27:24.996Z,47.75
2023-05-10T05:32:26.805Z,47.79
2023-05-10T05:37:28.402Z,47.99
2023-05-10T05:42:32.755Z,48.17
2023-05-10T05:47:35.334Z,48.48
2023-05-10T05:52:37.743Z,48.56
2023-05-10T05:57:40.158Z,48.66
2023-05-10T06:02:41.784Z,49.02
2023-05-10T06:07:43.641Z,49.33
2023-05-10T06:12:46.245Z,49.60
2023-05-10T06:17:50.786Z,49.72
2023-05-10T06:22:52.342Z,49.53
2023-05-10T06:27:58.135Z,49.95
2023-05-10T06:33:00.270Z,49.85
2023-05-10T06:38:01.975Z,50.08
2023-05-10T06:43:04.086Z,50.18
2023-05-10T06:48:05.941Z,50.33
2023-05-10T06:53:07.678Z,50.37
2023-05-10T06:58:09.256Z,50.58
2023-05-10T07:03:11.679Z,50.80
2023-05-10T07:08:14.404Z,50.79
2023-05-10T07:13:15.968Z,50.78
2023-05-10T07:18:17.764Z,50.77
2023-05-10T07:23:19.341Z,50.69
2023-05-10T07:28:21.225Z,51.01
2023-05-10T07:33:22.902Z,50.68
2023-05-10T07:38:25.108Z,50.69
2023-05-10T07:43:26.637Z,50.72
2023-05-10T07:48:28.207Z,50.73
2023-05-10T07:53:29.747Z,50.83
2023-05-10T07:58:31.838Z,50.74
2023-05-10T08:03:34.061Z,50.69
2023-05-10T08:08:36.174Z,50.32
2023-05-10T08:13:37.763Z,50.37
2023-05-10T08:18:40.534Z,50.35
2023-05-10T08:23:42.304Z,50.26
2023-05-10T08:28:43.832Z,49.79
2023-05-10T08:33:45.574Z,50.04
2023-05-10T08:38:50.254Z,50.05
2023-05-10T08:43:54.727Z,50.06
2023-05-10T08:49:00.733Z,50.15
2023-05-10T08:54:03.638Z,49.89
2023-05-10T08:59:05.364Z,50.01
2023-05-10T09:04:07.260Z,49.92
2023-05-10T09:09:09.862Z,49.98
2023-05-10T09:14:13.418Z,50.18
2023-05-10T09:19:15.061Z,49.95
2023-05-10T09:24:16.583Z,49.99
2023-05-10T09:29:18.384Z,49.79
2023-05-10T09:34:22.758Z,49.74
2023-05-10T09:39:34.625Z,49.80
2023-05-10T09:44:36.777Z,49.95
2023-05-10T09:49:38.872Z,49.44
2023-05-10T09:54:53.718Z,49.26
2023-05-10T09:59:55.452Z,48.90
2023-05-10T10:04:57.797Z,48.43
2023-05-10T10:09:59.878Z,48.52
2023-05-10T10:15:02.217Z,48.57
2023-05-10T10:20:04.700Z,47.68
2023-05-10T10:25:07.126Z,47.22
2023-05-10T10:30:31.205Z,46.92
2023-05-10T10:35:35.732Z,46.94
2023-05-10T10:40:37.409Z,46.72
2023-05-10T10:45:41.937Z,46.34
2023-05-10T10:50:47.758Z,46.13
2023-05-10T10:55:49.859Z,46.11
2023-05-10T11:00:51.504Z,46.11
2023-05-10T11:05:59.163Z,46.02
2023-05-10T11:11:00.680Z,45.52
2023-05-10T11:16:42.023Z,45.42
2023-05-10T11:22:06.152Z,45.07
2023-05-10T11:27:07.990Z,45.04
2023-05-10T11:32:09.874Z,44.94
2023-05-10T11:37:11.360Z,44.93
2023-05-10T11:42:13.271Z,44.54
2023-05-10T11:47:14.862Z,44.77
2023-05-10T11:52:16.421Z,44.13
2023-05-10T11:57:19.637Z,44.25
2023-05-10T12:02:22.772Z,43.82
2023-05-10T12:07:24.355Z,43.82
2023-05-10T12:12:26.084Z,43.51
2023-05-10T12:17:31.041Z,43.46
2023-05-10T12:22:35.866Z,43.72
2023-05-10T12:27:37.990Z,44.12
2023-05-10T12:32:41.667Z,44.21
2023-05-10T12:37:46.444Z,44.98
2023-05-10T12:42:48.091Z,45.45
2023-05-10T12:47:49.705Z,46.02
2023-05-10T12:52:51.285Z,46.33
2023-05-10T12:57:52.771Z,45.18
2023-05-10T13:02:54.431Z,45.19
2023-05-10T13:07:56.720Z,44.78
2023-05-10T13:12:59.052Z,44.79
2023-05-10T13:18:01.221Z,44.19
2023-05-10T13:23:03.727Z,44.45
2023-05-10T13:28:05.907Z,44.12
2023-05-10T13:33:07.508Z,43.95
2023-05-10T13:38:09.246Z,43.75
2023-05-10T13:43:10.977Z,43.30
2023-05-10T13:48:14.704Z,43.51
2023-05-10T13:53:16.408Z,43.90
2023-05-10T13:58:17.943Z,43.83
2023-05-10T14:03:20.056Z,43.92
2023-05-10T14:08:21.734Z,43.87
2023-05-10T14:13:24.845Z,43.45
2023-05-10T14:18:26.851Z,42.88
2023-05-10T14:23:29.640Z,42.82
2023-05-10T14:28:31.426Z,43.15
2023-05-10T14:33:32.967Z,43.22
2023-05-10T14:38:34.513Z,43.48
2023-05-10T14:43:37.252Z,44.36
2023-05-10T14:48:38.797Z,45.24
2023-05-10T14:53:40.509Z,45.40
2023-05-10T14:58:42.081Z,45.92
2023-05-10T15:03:43.728Z,46.44
2023-05-10T15:08:45.664Z,46.54
2023-05-10T15:13:47.161Z,46.63
2023-05-10T15:18:49.879Z,46.84
2023-05-10T15:23:51.469Z,47.04
2023-05-10T15:28:53.500Z,46.89
2023-05-10T15:34:01.567Z,46.88
2023-05-10T15:39:04.219Z,47.17
2023-05-10T15:44:06.365Z,47.53
2023-05-10T15:49:07.921Z,47.46
2023-05-10T15:54:09.917Z,47.36
2023-05-10T15:59:11.857Z,47.81
2023-05-10T16:04:13.486Z,48.00
2023-05-10T16:09:15.566Z,47.85
2023-05-10T16:14:17.280Z,48.07
2023-05-10T16:19:19.015Z,48.30
2023-05-10T16:24:20.996Z,48.40
2023-05-10T16:29:22.529Z,48.50
2023-05-10T16:34:25.413Z,48.68
2023-05-10T16:39:27.080Z,48.53
2023-05-10T16:44:28.677Z,48.58
2023-05-10T16:49:30.620Z,48.83
2023-05-10T16:54:32.159Z,49.01
2023-05-10T16:59:33.952Z,49.14
2023-05-10T17:04:35.717Z,49.24
2023-05-10T17:09:37.300Z,49.14
2023-05-10T17:14:38.888Z,49.49
2023-05-10T17:19:40.586Z,49.53
2023-05-10T17:24:42.154Z,49.75
2023-05-10T17:29:43.813Z,49.88
2023-05-10T17:34:45.447Z,50.30
2023-05-10T17:39:46.961Z,50.38
2023-05-10T17:44:48.487Z,50.24
2023-05-10T17:49:50.209Z,50.25
2023-05-10T17:54:52.126Z,50.53
2023-05-10T17:59:53.808Z,50.50
2023-05-10T18:04:57.556Z,50.59
2023-05-10T18:10:01.330Z,51.00
2023-05-10T18:15:03.254Z,51.08
2023-05-10T18:20:06.060Z,51.17
2023-05-10T18:25:08.074Z,50.98
2023-05-10T18:30:12.233Z,51.16
2023-05-10T18:35:14.271Z,51.31
2023-05-10T18:40:17.045Z,51.37
2023-05-10T18:45:18.903Z,51.35
2023-05-10T18:50:20.866Z,51.47
2023-05-10T18:55:25.679Z,51.69
2023-05-10T19:00:28.086Z,51.74
2023-05-10T19:05:31.570Z,51.87
2023-05-10T19:10:33.128Z,51.85
2023-05-10T19:15:34.782Z,51.98
2023-05-10T19:20:36.310Z,51.99
2023-05-10T19:25:39.296Z,52.25
2023-05-10T19:30:40.968Z,52.22
2023-05-10T19:35:42.757Z,52.39
2023-05-10T19:40:44.341Z,52.34
2023-05-10T19:45:46.713Z,52.08
2023-05-10T19:50:48.271Z,52.35
2023-05-10T19:55:49.802Z,52.21
2023-05-10T20:00:51.376Z,52.41
2023-05-10T20:05:53.111Z,52.40
2023-05-10T20:10:54.946Z,52.47
2023-05-10T20:15:58.084Z,52.47
2023-05-10T20:21:00.836Z,52.63
2023-05-10T20:26:02.670Z,52.63
2023-05-10T20:31:04.336Z,52.52
2023-05-10T20:36:06.655Z,52.76
2023-05-10T20:41:08.171Z,53.01
2023-05-10T20:46:10.725Z,52.74
2023-05-10T20:51:12.301Z,52.97
2023-05-10T20:56:14.037Z,52.88
2023-05-10T21:01:15.743Z,53.23
2023-05-10T21:06:17.454Z,53.31
2023-05-10T21:11:19.154Z,53.13
2023-05-10T21:16:20.807Z,53.26
2023-05-10T21:21:22.529Z,53.20
2023-05-10T21:26:24.171Z,53.08
2023-05-10T21:31:25.878Z,53.19
2023-05-10T21:36:27.873Z,53.23
2023-05-10T21:41:29.416Z,53.03
2023-05-10T21:46:31.004Z,53.31
2023-05-10T21:51:32.674Z,53.38
2023-05-10T21:56:34.195Z,53.41
2023-05-10T22:01:35.806Z,53.42
2023-05-10T22:06:37.493Z,53.65
2023-05-10T22:11:39.122Z,53.67
2023-05-10T22:16:40.977Z,53.75
2023-05-10T22:21:42.621Z,53.52
2023-05-10T22:26:44.438Z,53.93
2023-05-10T22:31:46.161Z,54.12
2023-05-10T22:36:49.053Z,53.98
2023-05-10T22:41:50.611Z,53.98
2023-05-10T22:46:52.165Z,53.86
2023-05-10T22:51:53.848Z,53.86
2023-05-10T22:56:56.502Z,53.80
2023-05-10T23:01:58.277Z,53.59
2023-05-10T23:06:59.878Z,53.87
2023-05-10T23:12:01.455Z,53.61
2023-05-10T23:17:03.115Z,53.69
2023-05-10T23:22:04.670Z,54.03
2023-05-10T23:27:06.227Z,53.96
2023-05-10T23:32:07.799Z,53.52
2023-05-10T23:37:09.466Z,53.57
2023-05-10T23:42:11.013Z,53.76
2023-05-10T23:47:12.820Z,53.69
2023-05-10T23:52:14.351Z,54.02
2023-05-10T23:57:15.947Z,53.73
